sensor_id;sensor_type;location;lat;lon;timestamp;temperature;humidity
20125;DHT22;10223;50.862;4.360;2023-07-30T00:00:06;17.40;99.90
20125;DHT22;10223;50.862;4.360;2023-07-30T00:02:35;17.30;99.90
20125;DHT22;10223;50.862;4.360;2023-07-30T00:05:04;17.40;99.90
20125;DHT22;10223;50.862;4.360;2023-07-30T00:07:30;17.30;99.90
20125;DHT22;10223;50.862;4.360;2023-07-30T00:09:57;17.30;99.90
20125;DHT22;10223;50.862;4.360;2023-07-30T00:12:25;17.20;99.90
20125;DHT22;10223;50.862;4.360;2023-07-30T00:14:52;17.30;99.90
20125;DHT22;10223;50.862;4.360;2023-07-30T00:17:19;17.10;99.90
20125;DHT22;10223;50.862;4.360;2023-07-30T00:19:46;17.00;99.90
20125;DHT22;10223;50.862;4.360;2023-07-30T00:22:14;17.00;99.90
20125;DHT22;10223;50.862;4.360;2023-07-30T00:24:40;17.10;99.90
20125;DHT22;10223;50.862;4.360;2023-07-30T00:27:07;17.00;99.90
20125;DHT22;10223;50.862;4.360;2023-07-30T00:29:34;16.90;99.90
20125;DHT22;10223;50.862;4.360;2023-07-30T00:32:01;17.00;99.90
20125;DHT22;10223;50.862;4.360;2023-07-30T00:34:27;17.00;99.90
20125;DHT22;10223;50.862;4.360;2023-07-30T00:36:54;16.90;99.90
20125;DHT22;10223;50.862;4.360;2023-07-30T00:39:22;16.80;99.90
20125;DHT22;10223;50.862;4.360;2023-07-30T00:41:49;16.90;99.90
20125;DHT22;10223;50.862;4.360;2023-07-30T00:44:16;16.90;99.90
20125;DHT22;10223;50.862;4.360;2023-07-30T00:46:43;16.90;99.90
20125;DHT22;10223;50.862;4.360;2023-07-30T00:49:10;16.90;99.90
20125;DHT22;10223;50.862;4.360;2023-07-30T00:51:37;17.10;99.90
20125;DHT22;10223;50.862;4.360;2023-07-30T00:54:04;17.00;99.90
20125;DHT22;10223;50.862;4.360;2023-07-30T00:56:32;17.00;99.90
20125;DHT22;10223;50.862;4.360;2023-07-30T00:58:59;16.90;99.90
20125;DHT22;10223;50.862;4.360;2023-07-30T01:01:26;17.00;99.90
20125;DHT22;10223;50.862;4.360;2023-07-30T01:03:54;16.90;99.90
20125;DHT22;10223;50.862;4.360;2023-07-30T01:06:20;17.00;99.90
20125;DHT22;10223;50.862;4.360;2023-07-30T01:08:49;17.00;99.90
20125;DHT22;10223;50.862;4.360;2023-07-30T01:11:16;17.00;99.90
20125;DHT22;10223;50.862;4.360;2023-07-30T01:13:45;17.00;99.90
20125;DHT22;10223;50.862;4.360;2023-07-30T01:16:12;17.10;99.90
20125;DHT22;10223;50.862;4.360;2023-07-30T01:18:39;17.10;99.90
20125;DHT22;10223;50.862;4.360;2023-07-30T01:21:07;17.00;99.90
20125;DHT22;10223;50.862;4.360;2023-07-30T01:23:34;16.90;99.90
20125;DHT22;10223;50.862;4.360;2023-07-30T01:26:06;16.90;99.90
20125;DHT22;10223;50.862;4.360;2023-07-30T01:28:37;16.90;99.90
20125;DHT22;10223;50.862;4.360;2023-07-30T01:31:06;17.00;99.90
20125;DHT22;10223;50.862;4.360;2023-07-30T01:33:34;17.10;99.90
20125;DHT22;10223;50.862;4.360;2023-07-30T01:36:02;17.00;99.90
20125;DHT22;10223;50.862;4.360;2023-07-30T01:38:31;16.90;99.90
20125;DHT22;10223;50.862;4.360;2023-07-30T01:40:58;17.00;99.90
20125;DHT22;10223;50.862;4.360;2023-07-30T01:43:24;17.00;99.90
20125;DHT22;10223;50.862;4.360;2023-07-30T01:45:51;17.10;99.90
20125;DHT22;10223;50.862;4.360;2023-07-30T01:48:18;17.20;99.90
20125;DHT22;10223;50.862;4.360;2023-07-30T01:50:45;17.20;99.90
20125;DHT22;10223;50.862;4.360;2023-07-30T01:53:14;17.20;99.90
20125;DHT22;10223;50.862;4.360;2023-07-30T01:55:42;17.20;99.90
20125;DHT22;10223;50.862;4.360;2023-07-30T01:58:11;17.20;99.90
20125;DHT22;10223;50.862;4.360;2023-07-30T02:00:38;17.30;99.90
20125;DHT22;10223;50.862;4.360;2023-07-30T02:03:05;17.20;99.90
20125;DHT22;10223;50.862;4.360;2023-07-30T02:05:32;17.10;99.90
20125;DHT22;10223;50.862;4.360;2023-07-30T02:07:59;17.10;99.90
20125;DHT22;10223;50.862;4.360;2023-07-30T02:10:25;17.20;99.90
20125;DHT22;10223;50.862;4.360;2023-07-30T02:12:54;17.10;99.90
20125;DHT22;10223;50.862;4.360;2023-07-30T02:15:21;17.00;99.90
20125;DHT22;10223;50.862;4.360;2023-07-30T02:17:49;17.00;99.90
20125;DHT22;10223;50.862;4.360;2023-07-30T02:20:16;16.90;99.90
20125;DHT22;10223;50.862;4.360;2023-07-30T02:22:43;17.00;99.90
20125;DHT22;10223;50.862;4.360;2023-07-30T02:25:10;17.00;99.90
20125;DHT22;10223;50.862;4.360;2023-07-30T02:27:36;17.10;99.90
20125;DHT22;10223;50.862;4.360;2023-07-30T02:30:06;17.20;99.90
20125;DHT22;10223;50.862;4.360;2023-07-30T02:32:33;17.10;99.90
20125;DHT22;10223;50.862;4.360;2023-07-30T02:35:00;16.90;99.90
20125;DHT22;10223;50.862;4.360;2023-07-30T02:37:26;17.00;99.90
20125;DHT22;10223;50.862;4.360;2023-07-30T02:39:53;17.10;99.90
20125;DHT22;10223;50.862;4.360;2023-07-30T02:42:20;17.00;99.90
20125;DHT22;10223;50.862;4.360;2023-07-30T02:44:47;17.00;99.90
20125;DHT22;10223;50.862;4.360;2023-07-30T02:47:15;17.00;99.90
20125;DHT22;10223;50.862;4.360;2023-07-30T02:49:42;17.00;99.90
20125;DHT22;10223;50.862;4.360;2023-07-30T02:52:08;17.00;99.90
20125;DHT22;10223;50.862;4.360;2023-07-30T02:54:35;17.00;99.90
20125;DHT22;10223;50.862;4.360;2023-07-30T02:57:02;17.00;99.90
20125;DHT22;10223;50.862;4.360;2023-07-30T02:59:29;16.90;99.90
20125;DHT22;10223;50.862;4.360;2023-07-30T03:01:56;17.00;99.90
20125;DHT22;10223;50.862;4.360;2023-07-30T03:04:24;17.00;99.90
20125;DHT22;10223;50.862;4.360;2023-07-30T03:06:51;16.90;99.90
20125;DHT22;10223;50.862;4.360;2023-07-30T03:09:17;17.00;99.90
20125;DHT22;10223;50.862;4.360;2023-07-30T03:11:44;16.80;99.90
20125;DHT22;10223;50.862;4.360;2023-07-30T03:14:11;16.70;99.90
20125;DHT22;10223;50.862;4.360;2023-07-30T03:16:38;16.70;99.90
20125;DHT22;10223;50.862;4.360;2023-07-30T03:19:04;16.70;99.90
20125;DHT22;10223;50.862;4.360;2023-07-30T03:21:32;16.80;99.90
20125;DHT22;10223;50.862;4.360;2023-07-30T03:23:59;16.80;99.90
20125;DHT22;10223;50.862;4.360;2023-07-30T03:26:26;16.80;99.90
20125;DHT22;10223;50.862;4.360;2023-07-30T03:28:53;16.80;99.90
20125;DHT22;10223;50.862;4.360;2023-07-30T03:31:19;16.60;99.90
20125;DHT22;10223;50.862;4.360;2023-07-30T03:33:46;16.60;99.90
20125;DHT22;10223;50.862;4.360;2023-07-30T03:36:14;16.70;99.90
20125;DHT22;10223;50.862;4.360;2023-07-30T03:38:43;16.70;99.90
20125;DHT22;10223;50.862;4.360;2023-07-30T03:41:10;16.70;99.90
20125;DHT22;10223;50.862;4.360;2023-07-30T03:43:37;16.60;99.90
20125;DHT22;10223;50.862;4.360;2023-07-30T03:46:03;16.60;99.90
20125;DHT22;10223;50.862;4.360;2023-07-30T03:48:30;16.60;99.90
20125;DHT22;10223;50.862;4.360;2023-07-30T03:50:57;16.60;99.90
20125;DHT22;10223;50.862;4.360;2023-07-30T03:53:24;16.50;99.90
20125;DHT22;10223;50.862;4.360;2023-07-30T03:55:52;16.50;99.90
20125;DHT22;10223;50.862;4.360;2023-07-30T03:58:19;16.50;99.90
20125;DHT22;10223;50.862;4.360;2023-07-30T04:00:45;16.60;99.90
20125;DHT22;10223;50.862;4.360;2023-07-30T04:03:12;16.60;99.90
20125;DHT22;10223;50.862;4.360;2023-07-30T04:05:39;16.60;99.90
20125;DHT22;10223;50.862;4.360;2023-07-30T04:08:06;16.60;99.90
20125;DHT22;10223;50.862;4.360;2023-07-30T04:10:33;16.60;99.90
20125;DHT22;10223;50.862;4.360;2023-07-30T04:13:01;16.50;99.90
20125;DHT22;10223;50.862;4.360;2023-07-30T04:15:28;16.50;99.90
20125;DHT22;10223;50.862;4.360;2023-07-30T04:17:55;16.40;99.90
20125;DHT22;10223;50.862;4.360;2023-07-30T04:20:22;16.50;99.90
20125;DHT22;10223;50.862;4.360;2023-07-30T04:22:49;16.50;99.90
20125;DHT22;10223;50.862;4.360;2023-07-30T04:25:15;16.30;99.90
20125;DHT22;10223;50.862;4.360;2023-07-30T04:27:42;16.30;99.90
20125;DHT22;10223;50.862;4.360;2023-07-30T04:30:11;16.30;99.90
20125;DHT22;10223;50.862;4.360;2023-07-30T04:32:38;16.40;99.90
20125;DHT22;10223;50.862;4.360;2023-07-30T04:35:05;16.40;99.90
20125;DHT22;10223;50.862;4.360;2023-07-30T04:37:32;16.30;99.90
20125;DHT22;10223;50.862;4.360;2023-07-30T04:39:59;16.20;99.90
20125;DHT22;10223;50.862;4.360;2023-07-30T04:42:26;16.20;99.90
20125;DHT22;10223;50.862;4.360;2023-07-30T04:44:52;16.20;99.90
20125;DHT22;10223;50.862;4.360;2023-07-30T04:47:20;16.20;99.90
20125;DHT22;10223;50.862;4.360;2023-07-30T04:49:47;16.20;99.90
20125;DHT22;10223;50.862;4.360;2023-07-30T04:52:14;16.30;99.90
20125;DHT22;10223;50.862;4.360;2023-07-30T04:54:41;16.30;99.90
20125;DHT22;10223;50.862;4.360;2023-07-30T04:57:08;16.30;99.90
20125;DHT22;10223;50.862;4.360;2023-07-30T04:59:35;16.40;99.90
20125;DHT22;10223;50.862;4.360;2023-07-30T05:02:02;16.30;99.90
20125;DHT22;10223;50.862;4.360;2023-07-30T05:04:30;16.30;99.90
20125;DHT22;10223;50.862;4.360;2023-07-30T05:06:57;16.30;99.90
20125;DHT22;10223;50.862;4.360;2023-07-30T05:09:24;16.30;99.90
20125;DHT22;10223;50.862;4.360;2023-07-30T05:11:51;16.30;99.90
20125;DHT22;10223;50.862;4.360;2023-07-30T05:14:17;16.30;99.90
20125;DHT22;10223;50.862;4.360;2023-07-30T05:16:44;16.30;99.90
20125;DHT22;10223;50.862;4.360;2023-07-30T05:19:11;16.30;99.90
20125;DHT22;10223;50.862;4.360;2023-07-30T05:21:39;16.30;99.90
20125;DHT22;10223;50.862;4.360;2023-07-30T05:24:07;16.30;99.90
20125;DHT22;10223;50.862;4.360;2023-07-30T05:26:34;16.30;99.90
20125;DHT22;10223;50.862;4.360;2023-07-30T05:29:00;16.20;99.90
20125;DHT22;10223;50.862;4.360;2023-07-30T05:31:27;16.30;99.90
20125;DHT22;10223;50.862;4.360;2023-07-30T05:33:54;16.20;99.90
20125;DHT22;10223;50.862;4.360;2023-07-30T05:36:21;16.20;99.90
20125;DHT22;10223;50.862;4.360;2023-07-30T05:38:49;16.30;99.90
20125;DHT22;10223;50.862;4.360;2023-07-30T05:41:15;16.40;99.90
20125;DHT22;10223;50.862;4.360;2023-07-30T05:43:42;16.30;99.90
20125;DHT22;10223;50.862;4.360;2023-07-30T05:46:09;16.30;99.90
20125;DHT22;10223;50.862;4.360;2023-07-30T05:48:36;16.20;99.90
20125;DHT22;10223;50.862;4.360;2023-07-30T05:51:03;16.30;99.90
20125;DHT22;10223;50.862;4.360;2023-07-30T05:53:29;16.30;99.90
20125;DHT22;10223;50.862;4.360;2023-07-30T05:55:58;16.40;99.90
20125;DHT22;10223;50.862;4.360;2023-07-30T05:58:24;16.40;99.90
20125;DHT22;10223;50.862;4.360;2023-07-30T06:00:51;16.50;99.90
20125;DHT22;10223;50.862;4.360;2023-07-30T06:03:18;16.50;99.90
20125;DHT22;10223;50.862;4.360;2023-07-30T06:05:45;16.40;99.90
20125;DHT22;10223;50.862;4.360;2023-07-30T06:08:12;16.40;99.90
20125;DHT22;10223;50.862;4.360;2023-07-30T06:10:39;16.50;99.90
20125;DHT22;10223;50.862;4.360;2023-07-30T06:13:08;16.40;99.90
20125;DHT22;10223;50.862;4.360;2023-07-30T06:15:34;16.40;99.90
20125;DHT22;10223;50.862;4.360;2023-07-30T06:18:01;16.40;99.90
20125;DHT22;10223;50.862;4.360;2023-07-30T06:20:28;16.30;99.90
20125;DHT22;10223;50.862;4.360;2023-07-30T06:22:55;16.40;99.90
20125;DHT22;10223;50.862;4.360;2023-07-30T06:25:22;16.30;99.90
20125;DHT22;10223;50.862;4.360;2023-07-30T06:27:49;16.40;99.90
20125;DHT22;10223;50.862;4.360;2023-07-30T06:30:18;16.30;99.90
20125;DHT22;10223;50.862;4.360;2023-07-30T06:32:44;16.30;99.90
20125;DHT22;10223;50.862;4.360;2023-07-30T06:35:11;16.40;99.90
20125;DHT22;10223;50.862;4.360;2023-07-30T06:37:38;16.40;99.90
20125;DHT22;10223;50.862;4.360;2023-07-30T06:40:06;16.50;99.90
20125;DHT22;10223;50.862;4.360;2023-07-30T06:42:33;16.40;99.90
20125;DHT22;10223;50.862;4.360;2023-07-30T06:45:00;16.40;99.90
20125;DHT22;10223;50.862;4.360;2023-07-30T06:47:28;16.40;99.90
20125;DHT22;10223;50.862;4.360;2023-07-30T06:49:55;16.50;99.90
20125;DHT22;10223;50.862;4.360;2023-07-30T06:52:22;16.50;99.90
20125;DHT22;10223;50.862;4.360;2023-07-30T06:54:48;16.40;99.90
20125;DHT22;10223;50.862;4.360;2023-07-30T06:57:15;16.50;99.90
20125;DHT22;10223;50.862;4.360;2023-07-30T06:59:42;16.60;99.90
20125;DHT22;10223;50.862;4.360;2023-07-30T07:02:09;16.70;99.90
20125;DHT22;10223;50.862;4.360;2023-07-30T07:04:37;16.70;99.90
20125;DHT22;10223;50.862;4.360;2023-07-30T07:07:04;16.90;99.90
20125;DHT22;10223;50.862;4.360;2023-07-30T07:09:31;16.90;99.90
20125;DHT22;10223;50.862;4.360;2023-07-30T07:11:58;17.10;99.90
20125;DHT22;10223;50.862;4.360;2023-07-30T07:14:25;17.40;99.90
20125;DHT22;10223;50.862;4.360;2023-07-30T07:16:53;17.20;99.90
20125;DHT22;10223;50.862;4.360;2023-07-30T07:19:20;17.30;99.90
20125;DHT22;10223;50.862;4.360;2023-07-30T07:21:48;17.40;99.90
20125;DHT22;10223;50.862;4.360;2023-07-30T07:24:16;17.50;99.90
20125;DHT22;10223;50.862;4.360;2023-07-30T07:26:43;17.70;99.90
20125;DHT22;10223;50.862;4.360;2023-07-30T07:29:10;17.90;99.90
20125;DHT22;10223;50.862;4.360;2023-07-30T07:31:37;18.20;99.90
20125;DHT22;10223;50.862;4.360;2023-07-30T07:34:04;18.40;99.90
20125;DHT22;10223;50.862;4.360;2023-07-30T07:36:31;18.40;99.90
20125;DHT22;10223;50.862;4.360;2023-07-30T07:38:59;18.40;99.90
20125;DHT22;10223;50.862;4.360;2023-07-30T07:41:26;18.40;99.90
20125;DHT22;10223;50.862;4.360;2023-07-30T07:43:52;18.30;99.90
20125;DHT22;10223;50.862;4.360;2023-07-30T07:46:19;18.30;99.90
20125;DHT22;10223;50.862;4.360;2023-07-30T07:48:46;18.10;99.90
20125;DHT22;10223;50.862;4.360;2023-07-30T07:51:13;18.20;99.90
20125;DHT22;10223;50.862;4.360;2023-07-30T07:53:40;18.10;99.90
20125;DHT22;10223;50.862;4.360;2023-07-30T07:56:08;18.10;99.90
20125;DHT22;10223;50.862;4.360;2023-07-30T07:58:35;18.20;99.90
20125;DHT22;10223;50.862;4.360;2023-07-30T08:01:02;18.20;99.90
20125;DHT22;10223;50.862;4.360;2023-07-30T08:03:29;18.40;99.90
20125;DHT22;10223;50.862;4.360;2023-07-30T08:05:55;18.60;99.90
20125;DHT22;10223;50.862;4.360;2023-07-30T08:08:24;18.60;99.90
20125;DHT22;10223;50.862;4.360;2023-07-30T08:10:50;18.60;99.90
20125;DHT22;10223;50.862;4.360;2023-07-30T08:13:19;18.40;99.90
20125;DHT22;10223;50.862;4.360;2023-07-30T08:15:45;18.40;99.90
20125;DHT22;10223;50.862;4.360;2023-07-30T08:18:13;18.50;99.90
20125;DHT22;10223;50.862;4.360;2023-07-30T08:20:39;18.60;99.90
20125;DHT22;10223;50.862;4.360;2023-07-30T08:23:06;18.70;99.90
20125;DHT22;10223;50.862;4.360;2023-07-30T08:25:33;18.60;99.90
20125;DHT22;10223;50.862;4.360;2023-07-30T08:28:00;18.80;99.90
20125;DHT22;10223;50.862;4.360;2023-07-30T08:30:28;18.80;99.90
20125;DHT22;10223;50.862;4.360;2023-07-30T08:32:55;18.70;99.90
20125;DHT22;10223;50.862;4.360;2023-07-30T08:35:21;18.80;99.90
20125;DHT22;10223;50.862;4.360;2023-07-30T08:37:48;18.80;99.90
20125;DHT22;10223;50.862;4.360;2023-07-30T08:40:15;19.10;99.90
20125;DHT22;10223;50.862;4.360;2023-07-30T08:42:42;19.10;99.90
20125;DHT22;10223;50.862;4.360;2023-07-30T08:45:09;19.10;99.90
20125;DHT22;10223;50.862;4.360;2023-07-30T08:47:39;19.00;99.90
20125;DHT22;10223;50.862;4.360;2023-07-30T08:50:07;18.90;99.90
20125;DHT22;10223;50.862;4.360;2023-07-30T08:52:35;18.90;99.90
20125;DHT22;10223;50.862;4.360;2023-07-30T08:55:03;18.90;99.90
20125;DHT22;10223;50.862;4.360;2023-07-30T08:57:30;18.80;99.90
20125;DHT22;10223;50.862;4.360;2023-07-30T09:00:02;18.70;99.90
20125;DHT22;10223;50.862;4.360;2023-07-30T09:02:33;18.70;99.90
20125;DHT22;10223;50.862;4.360;2023-07-30T09:05:03;18.60;99.90
20125;DHT22;10223;50.862;4.360;2023-07-30T09:07:31;18.60;99.90
20125;DHT22;10223;50.862;4.360;2023-07-30T09:09:58;18.60;99.90
20125;DHT22;10223;50.862;4.360;2023-07-30T09:12:29;18.50;99.90
20125;DHT22;10223;50.862;4.360;2023-07-30T09:14:57;18.50;99.90
20125;DHT22;10223;50.862;4.360;2023-07-30T09:17:24;18.50;99.90
20125;DHT22;10223;50.862;4.360;2023-07-30T09:19:51;18.60;99.90
20125;DHT22;10223;50.862;4.360;2023-07-30T09:22:26;18.60;99.90
20125;DHT22;10223;50.862;4.360;2023-07-30T09:24:53;18.50;99.90
20125;DHT22;10223;50.862;4.360;2023-07-30T09:27:21;18.30;99.90
20125;DHT22;10223;50.862;4.360;2023-07-30T09:29:53;18.30;99.90
20125;DHT22;10223;50.862;4.360;2023-07-30T09:32:20;18.40;99.90
20125;DHT22;10223;50.862;4.360;2023-07-30T09:34:47;18.40;99.90
20125;DHT22;10223;50.862;4.360;2023-07-30T09:37:14;18.40;99.90
20125;DHT22;10223;50.862;4.360;2023-07-30T09:39:43;18.40;99.90
20125;DHT22;10223;50.862;4.360;2023-07-30T09:42:10;18.50;99.90
20125;DHT22;10223;50.862;4.360;2023-07-30T09:44:37;18.50;99.90
20125;DHT22;10223;50.862;4.360;2023-07-30T09:47:08;18.50;99.90
20125;DHT22;10223;50.862;4.360;2023-07-30T09:49:36;18.40;99.90
20125;DHT22;10223;50.862;4.360;2023-07-30T09:52:03;18.30;99.90
20125;DHT22;10223;50.862;4.360;2023-07-30T09:54:31;18.10;99.90
20125;DHT22;10223;50.862;4.360;2023-07-30T09:57:00;18.00;99.90
20125;DHT22;10223;50.862;4.360;2023-07-30T09:59:27;17.80;99.90
20125;DHT22;10223;50.862;4.360;2023-07-30T10:01:54;17.70;99.90
20125;DHT22;10223;50.862;4.360;2023-07-30T10:04:22;17.70;99.90
20125;DHT22;10223;50.862;4.360;2023-07-30T10:06:53;17.60;99.90
20125;DHT22;10223;50.862;4.360;2023-07-30T10:09:22;17.40;99.90
20125;DHT22;10223;50.862;4.360;2023-07-30T10:11:51;17.50;99.90
20125;DHT22;10223;50.862;4.360;2023-07-30T10:14:21;17.60;99.90
20125;DHT22;10223;50.862;4.360;2023-07-30T10:16:53;17.80;99.90
20125;DHT22;10223;50.862;4.360;2023-07-30T10:19:23;18.10;99.90
20125;DHT22;10223;50.862;4.360;2023-07-30T10:21:50;18.30;99.90
20125;DHT22;10223;50.862;4.360;2023-07-30T10:24:17;18.60;99.90
20125;DHT22;10223;50.862;4.360;2023-07-30T10:26:44;18.80;99.90
20125;DHT22;10223;50.862;4.360;2023-07-30T10:29:16;19.20;99.90
20125;DHT22;10223;50.862;4.360;2023-07-30T10:31:49;19.70;99.90
20125;DHT22;10223;50.862;4.360;2023-07-30T10:34:16;20.00;99.90
20125;DHT22;10223;50.862;4.360;2023-07-30T10:36:44;20.10;99.90
20125;DHT22;10223;50.862;4.360;2023-07-30T10:39:14;20.20;99.90
20125;DHT22;10223;50.862;4.360;2023-07-30T10:41:42;20.30;99.90
20125;DHT22;10223;50.862;4.360;2023-07-30T10:44:17;20.20;99.90
20125;DHT22;10223;50.862;4.360;2023-07-30T10:46:48;20.10;99.90
20125;DHT22;10223;50.862;4.360;2023-07-30T10:49:15;20.00;99.90
20125;DHT22;10223;50.862;4.360;2023-07-30T10:51:42;19.70;99.90
20125;DHT22;10223;50.862;4.360;2023-07-30T10:54:08;19.50;99.90
20125;DHT22;10223;50.862;4.360;2023-07-30T10:56:36;19.30;99.90
20125;DHT22;10223;50.862;4.360;2023-07-30T10:59:04;19.50;99.90
20125;DHT22;10223;50.862;4.360;2023-07-30T11:01:36;19.70;99.90
20125;DHT22;10223;50.862;4.360;2023-07-30T11:04:08;19.70;99.90
20125;DHT22;10223;50.862;4.360;2023-07-30T11:06:35;20.00;99.90
20125;DHT22;10223;50.862;4.360;2023-07-30T11:09:02;20.20;99.90
20125;DHT22;10223;50.862;4.360;2023-07-30T11:11:29;20.50;99.90
20125;DHT22;10223;50.862;4.360;2023-07-30T11:13:56;21.10;99.90
20125;DHT22;10223;50.862;4.360;2023-07-30T11:16:24;21.50;99.90
20125;DHT22;10223;50.862;4.360;2023-07-30T11:18:51;21.40;99.90
20125;DHT22;10223;50.862;4.360;2023-07-30T11:21:19;21.20;99.90
20125;DHT22;10223;50.862;4.360;2023-07-30T11:23:46;21.30;99.90
20125;DHT22;10223;50.862;4.360;2023-07-30T11:26:14;21.40;99.90
20125;DHT22;10223;50.862;4.360;2023-07-30T11:28:41;21.20;99.90
20125;DHT22;10223;50.862;4.360;2023-07-30T11:31:09;21.10;99.90
20125;DHT22;10223;50.862;4.360;2023-07-30T11:33:38;21.20;99.90
20125;DHT22;10223;50.862;4.360;2023-07-30T11:36:07;21.20;99.90
20125;DHT22;10223;50.862;4.360;2023-07-30T11:38:36;21.40;99.90
20125;DHT22;10223;50.862;4.360;2023-07-30T11:41:04;21.40;99.90
20125;DHT22;10223;50.862;4.360;2023-07-30T11:43:36;21.60;99.90
20125;DHT22;10223;50.862;4.360;2023-07-30T11:46:07;21.70;99.90
20125;DHT22;10223;50.862;4.360;2023-07-30T11:48:34;22.00;99.90
20125;DHT22;10223;50.862;4.360;2023-07-30T11:51:01;22.10;99.90
20125;DHT22;10223;50.862;4.360;2023-07-30T11:53:44;22.10;99.90
20125;DHT22;10223;50.862;4.360;2023-07-30T11:56:16;21.90;99.90
20125;DHT22;10223;50.862;4.360;2023-07-30T11:58:43;22.00;99.90
20125;DHT22;10223;50.862;4.360;2023-07-30T12:01:10;22.00;99.90
20125;DHT22;10223;50.862;4.360;2023-07-30T12:03:37;21.70;99.90
20125;DHT22;10223;50.862;4.360;2023-07-30T12:06:05;21.60;99.90
20125;DHT22;10223;50.862;4.360;2023-07-30T12:08:34;21.70;99.90
20125;DHT22;10223;50.862;4.360;2023-07-30T12:11:04;21.70;99.90
20125;DHT22;10223;50.862;4.360;2023-07-30T12:13:31;22.00;99.90
20125;DHT22;10223;50.862;4.360;2023-07-30T12:15:58;22.20;99.90
20125;DHT22;10223;50.862;4.360;2023-07-30T12:18:26;22.20;99.90
20125;DHT22;10223;50.862;4.360;2023-07-30T12:20:54;22.30;99.90
20125;DHT22;10223;50.862;4.360;2023-07-30T12:23:21;22.20;99.90
20125;DHT22;10223;50.862;4.360;2023-07-30T12:25:48;22.20;99.90
20125;DHT22;10223;50.862;4.360;2023-07-30T12:28:17;22.30;99.90
20125;DHT22;10223;50.862;4.360;2023-07-30T12:30:43;22.20;99.90
20125;DHT22;10223;50.862;4.360;2023-07-30T12:33:10;22.30;99.90
20125;DHT22;10223;50.862;4.360;2023-07-30T12:35:37;22.60;99.90
20125;DHT22;10223;50.862;4.360;2023-07-30T12:38:04;22.40;99.90
20125;DHT22;10223;50.862;4.360;2023-07-30T12:40:31;22.10;99.90
20125;DHT22;10223;50.862;4.360;2023-07-30T12:43:00;21.90;99.90
20125;DHT22;10223;50.862;4.360;2023-07-30T12:45:28;22.00;99.90
20125;DHT22;10223;50.862;4.360;2023-07-30T12:47:55;21.80;99.90
20125;DHT22;10223;50.862;4.360;2023-07-30T12:50:22;21.60;99.90
20125;DHT22;10223;50.862;4.360;2023-07-30T12:52:49;21.80;99.90
20125;DHT22;10223;50.862;4.360;2023-07-30T12:55:16;22.10;99.90
20125;DHT22;10223;50.862;4.360;2023-07-30T12:57:42;22.60;99.90
20125;DHT22;10223;50.862;4.360;2023-07-30T13:00:10;22.80;99.90
20125;DHT22;10223;50.862;4.360;2023-07-30T13:02:38;22.80;99.90
20125;DHT22;10223;50.862;4.360;2023-07-30T13:05:06;22.90;99.90
20125;DHT22;10223;50.862;4.360;2023-07-30T13:07:33;22.90;99.90
20125;DHT22;10223;50.862;4.360;2023-07-30T13:10:04;23.10;99.90
20125;DHT22;10223;50.862;4.360;2023-07-30T13:12:31;23.20;99.90
20125;DHT22;10223;50.862;4.360;2023-07-30T13:14:58;23.20;99.90
20125;DHT22;10223;50.862;4.360;2023-07-30T13:17:25;23.60;99.90
20125;DHT22;10223;50.862;4.360;2023-07-30T13:19:53;23.70;99.90
20125;DHT22;10223;50.862;4.360;2023-07-30T13:22:20;24.00;99.90
20125;DHT22;10223;50.862;4.360;2023-07-30T13:24:47;24.10;99.90
20125;DHT22;10223;50.862;4.360;2023-07-30T13:27:13;24.30;99.90
20125;DHT22;10223;50.862;4.360;2023-07-30T13:29:40;24.10;99.90
20125;DHT22;10223;50.862;4.360;2023-07-30T13:32:07;24.00;99.90
20125;DHT22;10223;50.862;4.360;2023-07-30T13:34:34;23.80;99.90
20125;DHT22;10223;50.862;4.360;2023-07-30T13:37:02;23.80;99.90
20125;DHT22;10223;50.862;4.360;2023-07-30T13:39:29;23.80;99.90
20125;DHT22;10223;50.862;4.360;2023-07-30T13:41:56;24.30;99.90
20125;DHT22;10223;50.862;4.360;2023-07-30T13:44:23;24.30;99.90
20125;DHT22;10223;50.862;4.360;2023-07-30T13:46:49;24.00;99.90
20125;DHT22;10223;50.862;4.360;2023-07-30T13:49:16;24.90;99.90
20125;DHT22;10223;50.862;4.360;2023-07-30T13:51:43;25.20;99.90
20125;DHT22;10223;50.862;4.360;2023-07-30T13:54:11;25.60;99.90
20125;DHT22;10223;50.862;4.360;2023-07-30T13:56:38;25.10;99.90
20125;DHT22;10223;50.862;4.360;2023-07-30T13:59:05;24.50;99.90
20125;DHT22;10223;50.862;4.360;2023-07-30T14:01:32;23.70;99.90
20125;DHT22;10223;50.862;4.360;2023-07-30T14:03:59;23.10;99.90
20125;DHT22;10223;50.862;4.360;2023-07-30T14:06:26;22.90;99.90
20125;DHT22;10223;50.862;4.360;2023-07-30T14:08:52;23.50;99.90
20125;DHT22;10223;50.862;4.360;2023-07-30T14:11:21;24.10;99.90
20125;DHT22;10223;50.862;4.360;2023-07-30T14:13:47;24.10;99.90
20125;DHT22;10223;50.862;4.360;2023-07-30T14:16:15;23.50;99.90
20125;DHT22;10223;50.862;4.360;2023-07-30T14:18:42;23.20;99.90
20125;DHT22;10223;50.862;4.360;2023-07-30T14:21:09;22.90;99.90
20125;DHT22;10223;50.862;4.360;2023-07-30T14:23:37;22.80;99.90
20125;DHT22;10223;50.862;4.360;2023-07-30T14:26:04;22.50;99.90
20125;DHT22;10223;50.862;4.360;2023-07-30T14:28:32;22.40;99.90
20125;DHT22;10223;50.862;4.360;2023-07-30T14:30:59;22.40;99.90
20125;DHT22;10223;50.862;4.360;2023-07-30T14:33:25;22.50;99.90
20125;DHT22;10223;50.862;4.360;2023-07-30T14:35:52;22.90;99.90
20125;DHT22;10223;50.862;4.360;2023-07-30T14:38:19;23.10;99.90
20125;DHT22;10223;50.862;4.360;2023-07-30T14:40:46;23.20;99.90
20125;DHT22;10223;50.862;4.360;2023-07-30T14:43:13;23.10;99.90
20125;DHT22;10223;50.862;4.360;2023-07-30T14:45:41;22.70;99.90
20125;DHT22;10223;50.862;4.360;2023-07-30T14:48:08;22.50;99.90
20125;DHT22;10223;50.862;4.360;2023-07-30T14:50:35;22.30;99.90
20125;DHT22;10223;50.862;4.360;2023-07-30T14:53:01;22.20;99.90
20125;DHT22;10223;50.862;4.360;2023-07-30T14:55:28;22.10;99.90
20125;DHT22;10223;50.862;4.360;2023-07-30T14:57:55;21.80;99.90
20125;DHT22;10223;50.862;4.360;2023-07-30T15:00:22;21.80;99.90
20125;DHT22;10223;50.862;4.360;2023-07-30T15:02:50;21.70;99.90
20125;DHT22;10223;50.862;4.360;2023-07-30T15:05:17;21.50;99.90
20125;DHT22;10223;50.862;4.360;2023-07-30T15:07:44;21.60;99.90
20125;DHT22;10223;50.862;4.360;2023-07-30T15:10:11;21.50;99.90
20125;DHT22;10223;50.862;4.360;2023-07-30T15:12:37;21.40;99.90
20125;DHT22;10223;50.862;4.360;2023-07-30T15:15:06;21.20;99.90
20125;DHT22;10223;50.862;4.360;2023-07-30T15:17:34;21.10;99.90
20125;DHT22;10223;50.862;4.360;2023-07-30T15:20:02;21.00;99.90
20125;DHT22;10223;50.862;4.360;2023-07-30T15:22:29;20.90;99.90
20125;DHT22;10223;50.862;4.360;2023-07-30T15:24:56;20.80;99.90
20125;DHT22;10223;50.862;4.360;2023-07-30T15:27:23;20.80;99.90
20125;DHT22;10223;50.862;4.360;2023-07-30T15:29:50;20.80;99.90